Latest Weather Observations for Port Augusta

IDS60801

Issued at 10:31 am CDT Thursday 21 November 2019 (issued every 10 minutes, with the page automatically refreshed every 10 minutes)

About weather observations | Map of weather stations | Latest weather observations for SA | Other Formats
Station Details ID: 018201 Name: PORT AUGUSTA AERO Lat: -32.51 Lon: 137.72 Height: 13.97 m
Data from the previous 72 hours. | See also: Recent months at Port Augusta
Date/Time
CDT
Temp
°C
App
Temp
°C
Dew
Point
°C
Rel
Hum
%
Delta-T
°C
Wind Press
QNH
hPa
Press
MSL
hPa
Rain since
9am
mm
Dir  Spd
km/h
Gust
km/h
Spd
kts
Gust
kts
21/10:30am 24.6 20.3 10.8 42 7.7 SSW 24 33 13 18 1011.2 1011.1 0.0
21/10:00am 23.4 19.3 11.5 47 6.7 SSW 24 35 13 19 1011.1 1011.0 0.0
21/09:30am 23.0 18.2 11.7 49 6.4 SSW 28 35 15 19 1010.9 1010.8 0.0
21/09:00am 22.0 17.8 12.3 54 5.5 SSW 26 32 14 17 1010.5 1010.4 0.0
21/08:30am 21.3 17.0 12.2 56 5.1 SW 26 33 14 18 1009.8 1009.7 0.0
21/08:00am 20.7 15.3 12.7 60 4.5 SW 33 43 18 23 1009.6 1009.5 0.0
21/07:30am 20.5 16.0 12.7 61 4.4 WSW 28 35 15 19 1009.0 1008.9 0.0
21/07:00am 20.5 16.0 12.7 61 4.4 SW 28 35 15 19 1008.2 1008.1 0.0
21/06:30am 20.4 17.2 13.1 63 4.2 SW 22 33 12 18 1007.4 1007.4 0.0
21/06:00am 20.5 15.3 12.7 61 4.4 SW 32 41 17 22 1005.8 1005.8 0.0
21/05:57am 20.6 15.2 12.8 61 4.4 SW 33 43 18 23 1005.5 1005.5 0.0
21/05:30am 22.5 16.9 11.6 50 6.1 WSW 32 48 17 26 1003.5 1003.5 0.0
21/05:00am 26.4 20.4 6.9 29 10.3 WSW 28 43 15 23 1002.0 1002.0 0.0
21/04:58am 26.6 20.5 6.6 28 10.5 SW 28 43 15 23 1002.0 1002.0 0.0
21/04:30am 27.3 21.3 -6.9 10 14.2 WNW 17 24 9 13 1001.0 1001.0 0.0
21/04:00am 29.3 22.3 -6.8 9 15.2 NNW 22 28 12 15 999.6 999.6 0.0
21/03:30am 27.7 20.4 -6.6 10 14.4 WSW 24 28 13 15 999.6 999.6 0.0
21/03:00am 29.6 24.4 -6.6 9 15.5 N 13 19 7 10 998.6 998.6 0.0
21/02:30am 30.3 24.4 -6.1 9 15.8 N 17 22 9 12 998.9 998.9 0.0
21/02:00am 31.4 24.2 -5.2 9 16.1 N 24 32 13 17 999.2 999.2 0.0
21/01:30am 31.3 24.1 -5.3 9 16.2 N 24 32 13 17 1000.0 1000.0 0.0
21/01:00am 30.3 24.0 -6.1 9 15.7 NNE 19 24 10 13 1000.7 1000.7 0.0
21/12:30am 30.2 23.9 -6.1 9 15.7 N 19 22 10 12 1001.1 1001.1 0.0
21/12:00am 31.0 25.1 -5.5 9 16.0 NNE 17 19 9 10 1001.4 1001.4 0.0
 
Date/Time
CDT
Temp
°C
App
Temp
°C
Dew
Point
°C
Rel
Hum
%
Delta-T
°C
Wind Press
QNH
hPa
Press
MSL
hPa
Rain since
9am
mm
Dir  Spd
km/h
Gust
km/h
Spd
kts
Gust
kts
20/11:30pm 31.1 26.7 -5.5 9 16.1 NNE 9 11 5 6 1001.8 1001.8 0.0
20/11:00pm 30.9 26.5 -5.6 9 15.9 NNE 9 11 5 6 1002.0 1002.0 0.0
20/10:30pm 33.0 27.9 -5.6 8 17.2 NNW 13 17 7 9 1001.9 1001.9 0.0
20/10:00pm 34.8 28.9 -6.0 7 18.2 NNW 17 19 9 10 1001.9 1001.9 0.0
20/09:30pm 36.4 30.0 -6.9 6 19.4 NNW 19 22 10 12 1001.9 1001.9 0.0
20/09:00pm 38.0 30.7 -5.8 6 20.2 NNW 24 32 13 17 1001.6 1001.6 0.0
20/08:30pm 39.2 31.3 -4.9 6 20.8 NNW 28 39 15 21 1001.5 1001.5 0.0
20/08:00pm 39.9 31.0 -6.8 5 21.4 NNW 32 44 17 24 1001.5 1001.5 0.0
20/07:51pm 40.4 31.0 -6.5 5 21.7 NNW 35 54 19 29 1001.4 1001.4 0.0
20/07:30pm 40.8 31.0 -6.2 5 22.0 NNW 37 52 20 28 1001.3 1001.3 0.0
20/07:00pm 41.6 30.6 -5.6 5 22.3 NNW 44 56 24 30 1001.1 1001.1 0.0
20/06:45pm 42.1 31.3 -5.3 5 22.6 N 43 61 23 33 1001.0 1001.0 0.0
20/06:30pm 42.3 31.5 -5.1 5 22.8 N 43 56 23 30 1001.1 1001.1 0.0
20/06:00pm 42.6 31.6 -4.9 5 23.0 N 44 63 24 34 1001.0 1001.0 0.0
20/05:39pm 43.2 31.9 -4.5 5 23.2 N 46 65 25 35 1001.1 1001.1 0.0
20/05:30pm 42.9 30.8 -4.7 5 23.1 N 50 65 27 35 1001.1 1001.1 0.0
20/05:07pm 43.3 31.6 -4.5 5 23.2 NNW 48 67 26 36 1001.2 1001.2 0.0
20/05:00pm 43.2 31.1 -4.5 5 23.2 NNW 50 65 27 35 1001.4 1001.4 0.0
20/04:49pm 44.5 33.9 -6.6 4 24.3 NNW 41 61 22 33 1001.5 1001.5 0.0
20/04:42pm 43.8 31.9 -7.0 4 23.9 NNW 48 69 26 37 1001.6 1001.6 0.0
20/04:30pm 43.5 30.3 -4.3 5 23.4 N 56 74 30 40 1001.6 1001.6 0.0
20/04:02pm 44.1 33.4 -3.9 5 23.7 N 43 61 23 33 1002.2 1002.2 0.0
20/04:00pm 44.1 33.4 -3.9 5 23.7 N 43 59 23 32 1002.3 1002.3 0.0
20/03:30pm 43.2 31.1 -4.5 5 23.3 N 50 87 27 47 1002.7 1002.7 0.0
20/03:26pm 44.0 31.6 -4.0 5 23.6 N 52 87 28 47 1002.6 1002.6 0.0
20/03:00pm 44.2 32.2 -3.8 5 23.8 N 50 69 27 37 1003.3 1003.3 0.0
20/02:30pm 43.7 31.3 -4.2 5 23.5 NNW 52 72 28 39 1003.9 1003.9 0.0
20/02:00pm 43.9 32.7 -4.0 5 23.5 NNW 46 65 25 35 1004.5 1004.5 0.0
20/01:30pm 43.3 31.6 -4.5 5 23.3 NNW 48 67 26 36 1005.1 1005.1 0.0
20/01:02pm 42.1 31.1 -5.3 5 22.6 N 44 63 24 34 1005.6 1005.6 0.0
20/01:00pm 42.8 31.9 -4.8 5 23.0 N 44 61 24 33 1005.6 1005.6 0.0
20/12:30pm 42.0 30.2 -5.4 5 22.6 N 48 67 26 36 1006.1 1006.1 0.0
20/12:26pm 41.7 30.3 -5.6 5 22.4 N 46 67 25 36 1006.1 1006.1 0.0
20/12:00pm 42.0 31.0 -5.4 5 22.6 NNW 44 57 24 31 1006.5 1006.5 0.0
20/11:46am 41.9 31.8 -5.4 5 22.5 NNW 39 61 21 33 1006.7 1006.7 0.0
20/11:30am 40.8 31.4 -6.2 5 22.0 N 35 46 19 25 1007.1 1007.1 0.0
20/11:07am 39.7 30.5 -4.6 6 21.0 N 35 54 19 29 1007.5 1007.5 0.0
20/11:00am 39.0 29.4 -5.1 6 20.6 N 37 50 20 27 1007.6 1007.6 0.0
20/10:30am 38.0 27.5 -5.8 6 20.2 N 41 52 22 28 1008.0 1007.9 0.0
20/10:00am 37.3 28.5 -4.2 7 19.5 NNW 33 43 18 23 1008.3 1008.2 0.0
20/09:30am 36.3 27.4 -5.0 7 19.0 N 33 39 18 21 1008.5 1008.4 0.0
20/09:00am 35.1 26.5 -4.1 8 18.2 N 32 39 17 21 1008.6 1008.5 0.0
20/08:30am 33.6 25.4 -3.6 9 17.2 N 30 39 16 21 1008.6 1008.5 0.0
20/08:29am 33.7 25.9 -3.5 9 17.2 N 28 39 15 21 1008.7 1008.6 0.0
20/08:00am 31.0 25.4 -2.9 11 15.5 NNW 17 22 9 12 1008.7 1008.6 0.0
20/07:30am 27.8 24.3 1.3 18 12.8 NW 9 15 5 8 1008.6 1008.5 0.0
20/07:00am 23.3 20.6 5.7 32 8.9 W 9 13 5 7 1008.6 1008.5 0.0
20/06:30am 18.9 16.1 5.0 40 6.7 WSW 9 13 5 7 1008.4 1008.3 0.0
20/06:00am 18.8 15.9 6.6 45 6.1 NNW 11 15 6 8 1008.2 1008.1 0.0
20/05:30am 17.8 15.7 5.7 45 5.9 WNW 6 9 3 5 1008.2 1008.1 0.0
20/05:00am 20.3 17.6 3.5 33 8.0 WSW 7 9 4 5 1008.1 1008.0 0.0
20/04:30am 20.6 17.6 5.8 38 7.4 W 11 15 6 8 1008.1 1008.0 0.0
20/04:00am 20.1 17.0 7.1 43 6.6 WSW 13 15 7 8 1007.8 1007.7 0.0
20/03:30am 20.1 17.2 11.1 56 4.9 W 17 19 9 10 1007.9 1007.8 0.0
20/03:00am 19.2 18.7 12.7 66 3.7 WNW 7 11 4 6 1008.2 1008.1 0.0
20/02:30am 20.0 20.0 13.5 66 3.7 SSE 6 9 3 5 1008.5 1008.4 0.0
20/02:00am 21.0 19.9 14.2 65 4.0 ESE 13 15 7 8 1008.7 1008.6 0.0
20/01:30am 21.1 19.7 13.5 62 4.4 ESE 13 17 7 9 1009.2 1009.1 0.0
20/01:00am 22.5 19.8 13.6 57 5.2 ESE 20 24 11 13 1009.5 1009.4 0.0
20/12:30am 23.0 19.9 12.3 51 6.1 ESE 20 24 11 13 1009.8 1009.7 0.0
20/12:00am 22.6 20.1 15.2 63 4.4 ESE 22 28 12 15 1010.1 1010.0 0.0
 
Date/Time
CDT
Temp
°C
App
Temp
°C
Dew
Point
°C
Rel
Hum
%
Delta-T
°C
Wind Press
QNH
hPa
Press
MSL
hPa
Rain since
9am
mm
Dir  Spd
km/h
Gust
km/h
Spd
kts
Gust
kts
19/11:30pm 23.0 20.6 14.3 58 5.1 ESE 20 24 11 13 1010.3 1010.2 0.0
19/11:00pm 23.5 21.7 14.5 57 5.3 ESE 17 24 9 13 1010.4 1010.3 0.0
19/10:30pm 23.9 21.2 14.6 56 5.5 ESE 22 28 12 15 1010.4 1010.3 0.0
19/10:00pm 24.2 21.2 15.9 59 5.0 ESE 26 32 14 17 1010.0 1009.9 0.0
19/09:30pm 26.3 23.1 13.1 44 7.7 ESE 22 32 12 17 1009.7 1009.6 0.0
19/09:00pm 28.2 24.6 9.9 32 10.3 SE 19 26 10 14 1009.5 1009.4 0.0
19/08:30pm 28.5 24.4 10.2 32 10.3 SE 22 28 12 15 1009.3 1009.2 0.0
19/08:00pm 29.5 26.1 11.1 32 10.6 SE 20 30 11 16 1009.1 1009.0 0.0
19/07:30pm 29.1 26.0 13.3 37 9.4 SE 22 32 12 17 1009.0 1008.9 0.0
19/07:00pm 33.4 26.9 8.1 21 14.1 SE 32 44 17 24 1008.7 1008.6 0.0
19/06:30pm 36.0 27.3 2.1 12 17.5 SSE 37 50 20 27 1008.4 1008.3 0.0
19/06:00pm 36.8 28.8 1.5 11 18.1 SE 33 43 18 23 1008.3 1008.2 0.0
19/05:30pm 36.8 29.2 2.8 12 17.8 SE 32 39 17 21 1008.3 1008.2 0.0
19/05:00pm 37.9 30.4 3.6 12 18.2 SSE 32 41 17 22 1008.3 1008.2 0.0
19/04:30pm 38.1 30.6 1.2 10 19.0 SSE 30 39 16 21 1008.5 1008.4 0.0
19/04:00pm 37.0 30.2 2.9 12 17.8 SE 28 35 15 19 1008.8 1008.7 0.0
19/03:30pm 34.9 29.3 8.6 20 14.9 SE 28 43 15 23 1009.2 1009.1 0.0
19/03:00pm 32.7 27.9 11.8 28 12.3 SE 28 39 15 21 1009.6 1009.5 0.0
19/02:30pm 33.3 28.4 11.2 26 12.9 SE 28 33 15 18 1010.1 1010.0 0.0
19/02:00pm 33.5 29.0 10.2 24 13.4 SE 24 33 13 18 1010.6 1010.5 0.0
19/01:30pm 31.5 27.2 10.8 28 11.9 SE 24 32 13 17 1011.1 1011.0 0.0
19/01:00pm 31.5 27.5 11.8 30 11.5 SE 24 30 13 16 1011.7 1011.6 0.0
19/12:30pm 33.0 28.9 8.5 22 13.7 SE 20 28 11 15 1012.2 1012.1 0.0
19/12:00pm 34.3 32.0 5.8 17 15.4 E 7 13 4 7 1012.6 1012.5 0.0
19/11:30am 31.8 29.6 6.1 20 13.8 SE 7 11 4 6 1012.9 1012.8 0.0
19/11:00am 29.8 28.2 8.8 27 11.6 NNE 7 13 4 7 1013.1 1013.0 0.0
19/10:30am 27.2 25.9 11.3 37 9.1 E 9 13 5 7 1013.2 1013.1 0.0
19/10:00am 26.2 24.5 12.6 43 7.9 SE 13 20 7 11 1013.5 1013.4 0.0
19/09:30am 24.9 23.1 12.2 45 7.3 ESE 13 24 7 13 1013.7 1013.6 0.0
19/09:00am 23.8 22.1 13.6 52 5.9 SE 15 20 8 11 1013.6 1013.5 0.0
19/08:30am 23.0 20.4 13.2 54 5.7 ESE 19 24 10 13 1013.5 1013.4 0.0
19/08:00am 22.1 19.9 13.2 57 5.1 ESE 17 22 9 12 1013.3 1013.2 0.0
19/07:30am 21.2 19.0 13.4 61 4.5 ESE 17 24 9 13 1013.2 1013.1 0.0
19/07:00am 19.9 17.7 12.2 61 4.3 ESE 15 20 8 11 1013.0 1012.9 0.0
19/06:30am 18.4 15.8 9.2 55 4.8 ESE 13 17 7 9 1012.6 1012.5 0.0
19/06:00am 17.6 13.7 3.5 39 6.6 ESE 13 17 7 9 1012.2 1012.1 0.0
19/05:30am 16.2 13.4 -6.8 20 8.5 CALM 0 7 0 4 1011.8 1011.7 0.0
19/05:00am 17.1 14.4 -6.0 20 8.8 CALM 0 0 0 0 1011.7 1011.6 0.0
19/04:30am 17.4 13.6 -5.8 20 8.9 NE 6 7 3 4 1011.6 1011.5 0.0
19/04:00am 18.0 14.0 -5.9 19 9.2 NE 7 9 4 5 1011.5 1011.4 0.0
19/03:30am 17.8 13.3 -6.8 18 9.3 NE 9 11 5 6 1011.5 1011.4 0.0
19/03:00am 19.7 16.9 -6.8 16 10.2 CALM 0 0 0 0 1011.5 1011.4 0.0
19/02:30am 20.5 16.7 -5.4 17 10.3 ENE 6 7 3 4 1011.7 1011.6 0.0
19/02:00am 20.1 16.0 -6.5 16 10.3 SSE 7 11 4 6 1012.1 1012.0 0.0
19/01:30am 20.9 17.0 -6.7 15 10.8 WNW 6 9 3 5 1012.3 1012.2 0.0
19/01:00am 23.4 19.4 -5.6 14 11.8 N 7 13 4 7 1012.5 1012.4 0.0
19/12:30am 22.0 16.5 -5.8 15 11.1 NE 15 20 8 11 1012.7 1012.6 0.0
19/12:00am 22.7 18.7 -6.1 14 11.6 WSW 7 17 4 9 1013.1 1013.0 0.0
 
Date/Time
CDT
Temp
°C
App
Temp
°C
Dew
Point
°C
Rel
Hum
%
Delta-T
°C
Wind Press
QNH
hPa
Press
MSL
hPa
Rain since
9am
mm
Dir  Spd
km/h
Gust
km/h
Spd
kts
Gust
kts
18/11:30pm 24.8 20.3 -6.5 12 12.7 NNW 9 13 5 7 1012.7 1012.6 0.0
18/11:00pm 24.6 20.1 -6.7 12 12.7 WNW 9 11 5 6 1012.8 1012.7 0.0
18/10:30pm 26.2 21.5 -5.4 12 13.3 NNW 11 13 6 7 1012.6 1012.5 0.0
18/10:00pm 27.1 21.9 -5.9 11 13.9 NNW 13 15 7 8 1012.4 1012.3 0.0
18/09:30pm 28.0 22.4 -6.4 10 14.4 NNW 15 17 8 9 1012.2 1012.1 0.0
18/09:00pm 29.7 24.1 -6.5 9 15.4 NW 15 17 8 9 1012.1 1012.0 0.0
18/08:30pm 30.2 24.6 -6.1 9 15.6 NNW 15 17 8 9 1011.9 1011.8 0.0
18/08:00pm 32.4 27.2 -6.0 8 16.9 NNW 13 17 7 9 1012.0 1011.9 0.0
18/07:30pm 35.4 29.5 -5.6 7 18.6 NNW 17 24 9 13 1012.0 1011.9 0.0
18/07:00pm 36.7 30.9 -4.7 7 19.2 WNW 17 22 9 12 1011.8 1011.7 0.0
18/06:30pm 37.3 31.3 -6.3 6 19.8 NW 17 26 9 14 1011.9 1011.8 0.0
18/06:00pm 37.4 31.1 -6.2 6 19.8 W 19 26 10 14 1012.0 1011.9 0.0
18/05:30pm 37.3 32.1 -6.3 6 19.8 WNW 13 19 7 10 1012.2 1012.1 0.0
18/05:00pm 37.0 32.0 -4.4 7 19.3 W 13 24 7 13 1012.5 1012.4 0.0
18/04:30pm 37.7 31.6 -3.9 7 19.7 NW 19 28 10 15 1012.9 1012.8 0.0
18/04:00pm 36.8 31.0 -4.6 7 19.2 WNW 17 28 9 15 1013.2 1013.1 0.0
18/03:30pm 36.6 31.2 -4.7 7 19.1 WNW 15 28 8 15 1013.7 1013.6 0.0
18/03:00pm 35.3 30.0 -3.9 8 18.2 WNW 15 26 8 14 1014.2 1014.1 0.0
18/02:30pm 35.2 29.5 -4.0 8 18.2 NW 17 30 9 16 1014.7 1014.6 0.0
18/02:00pm 34.7 29.1 -2.8 9 17.7 WNW 17 28 9 15 1015.3 1015.2 0.0
18/01:30pm 34.3 28.7 -3.1 9 17.5 NW 17 33 9 18 1015.8 1015.7 0.0
18/01:00pm 33.1 26.4 -4.0 9 16.9 N 22 37 12 20 1016.2 1016.1 0.0
18/12:30pm 32.9 26.8 -2.7 10 16.6 NNW 20 32 11 17 1016.6 1016.5 0.0
18/12:00pm 31.6 25.3 -1.2 12 15.5 NNW 22 32 12 17 1016.9 1016.8 0.0
18/11:30am 31.2 24.2 -0.5 13 15.1 N 26 32 14 17 1017.3 1017.2 0.0
18/11:00am 29.4 22.5 0.1 15 14.0 NNW 26 35 14 19 1017.4 1017.3 0.0

Other formats

Comma delimited format used in spreadsheet applications
http://www.bom.gov.au/fwo/IDS60801/IDS60801.95666.axf

JavaScript Object Notation format (JSON) in row-major order
http://www.bom.gov.au/fwo/IDS60801/IDS60801.95666.json

Data quality

Most of these data are generated automatically and are frequently updated. Quality checks on data are not normally performed. It is possible for incorrect values to appear. Refer to information at About Latest Weather Observations and please check the disclaimer before using these data.